createdAt,value
2022-10-08T02:10:41.981Z,14.27
2022-10-08T02:13:31.602Z,13.85
2022-10-08T02:16:28.079Z,13.05
2022-10-08T02:19:25.158Z,12.82
2022-10-08T02:22:18.365Z,13.20
2022-10-08T02:25:17.412Z,15.15
2022-10-08T02:28:20.706Z,11.90
2022-10-08T02:31:14.535Z,13.13
2022-10-08T02:34:09.951Z,14.02
2022-10-08T02:37:06.007Z,14.65
2022-10-08T02:40:01.848Z,13.00
2022-10-08T02:42:54.297Z,11.23
2022-10-08T02:45:49.573Z,12.48
2022-10-08T02:48:42.686Z,12.70
2022-10-08T02:51:34.365Z,13.43
2022-10-08T02:54:25.127Z,11.85
2022-10-08T02:57:18.628Z,9.80
2022-10-08T03:00:08.760Z,14.05
2022-10-08T03:03:01.467Z,16.00
2022-10-08T03:05:52.740Z,14.30
2022-10-08T03:08:46.665Z,11.38
2022-10-08T03:11:36.280Z,11.88
2022-10-08T03:14:26.776Z,11.00
2022-10-08T03:17:19.551Z,12.00
2022-10-08T03:20:13.053Z,14.77
2022-10-08T03:23:03.348Z,9.57
2022-10-08T03:25:52.860Z,14.13
2022-10-08T03:28:42.106Z,11.10
2022-10-08T03:31:30.737Z,12.77
2022-10-08T03:34:20.091Z,10.73
2022-10-08T03:37:11.120Z,8.98
2022-10-08T03:40:00.850Z,10.88
2022-10-08T03:42:50.470Z,10.77
2022-10-08T03:45:39.140Z,13.45
2022-10-08T03:48:27.944Z,9.90
2022-10-08T03:51:17.557Z,11.68
2022-10-08T03:54:08.698Z,9.05
2022-10-08T03:56:57.983Z,9.38
2022-10-08T03:59:46.808Z,7.97
2022-10-08T04:02:36.105Z,8.18
2022-10-08T04:05:25.035Z,8.63
2022-10-08T04:08:14.491Z,11.23
2022-10-08T04:11:06.916Z,7.75
2022-10-08T04:13:56.142Z,8.65
2022-10-08T04:16:45.526Z,12.25
2022-10-08T04:19:34.773Z,6.47
2022-10-08T04:22:23.728Z,10.77
2022-10-08T04:25:12.930Z,8.40
2022-10-08T04:28:03.279Z,7.63
2022-10-08T04:30:59.818Z,7.60
2022-10-08T04:33:48.991Z,7.57
2022-10-08T04:36:38.496Z,7.50
2022-10-08T04:39:27.881Z,6.03
2022-10-08T04:42:17.474Z,7.18
2022-10-08T04:45:08.802Z,8.27
2022-10-08T04:47:57.849Z,10.48
2022-10-08T04:50:47.205Z,9.25
2022-10-08T04:53:37.720Z,11.07
2022-10-08T04:56:28.184Z,9.82
2022-10-08T04:59:17.199Z,7.70
2022-10-08T05:02:07.627Z,8.40
2022-10-08T05:04:57.103Z,8.52
2022-10-08T05:07:45.924Z,9.07
2022-10-08T05:10:35.416Z,8.23
2022-10-08T05:13:24.369Z,12.93
2022-10-08T05:16:15.835Z,7.28
2022-10-08T05:19:09.055Z,7.45
2022-10-08T05:21:58.303Z,7.43
2022-10-08T05:24:47.081Z,5.65
2022-10-08T05:27:40.084Z,7.55
2022-10-08T05:30:29.648Z,7.68
2022-10-08T05:33:18.679Z,9.02
2022-10-08T05:36:13.321Z,6.55
2022-10-08T05:39:03.535Z,6.43
2022-10-08T05:41:53.485Z,8.30
2022-10-08T05:44:45.397Z,6.80
2022-10-08T05:47:35.022Z,8.20
2022-10-08T05:50:24.199Z,9.07
2022-10-08T05:53:15.282Z,6.63
2022-10-08T05:56:05.994Z,6.68
2022-10-08T05:58:56.096Z,7.93
2022-10-08T06:01:45.448Z,11.85
2022-10-08T06:04:34.311Z,7.65
2022-10-08T06:07:23.635Z,7.05
2022-10-08T06:10:14.084Z,8.85
2022-10-08T06:13:03.076Z,9.38
2022-10-08T06:15:58.191Z,7.80
2022-10-08T06:18:46.670Z,7.38
2022-10-08T06:21:36.519Z,8.00
2022-10-08T06:24:25.728Z,7.85
2022-10-08T06:27:16.466Z,9.40
2022-10-08T06:30:05.672Z,9.27
2022-10-08T06:32:54.993Z,10.63
2022-10-08T06:35:44.102Z,8.77
2022-10-08T06:38:34.115Z,9.30
2022-10-08T06:41:23.867Z,10.63
2022-10-08T06:44:15.942Z,6.85
2022-10-08T06:47:04.794Z,9.10
2022-10-08T06:49:54.057Z,7.85
2022-10-08T06:52:43.582Z,8.45
2022-10-08T06:55:33.656Z,7.47
2022-10-08T06:58:23.310Z,7.25
2022-10-08T07:01:15.796Z,8.38
2022-10-08T07:04:07.304Z,7.20
2022-10-08T07:06:57.027Z,8.15
2022-10-08T07:09:46.397Z,7.53
2022-10-08T07:12:36.063Z,7.43
2022-10-08T07:15:25.199Z,7.32
2022-10-08T07:18:16.457Z,7.22
2022-10-08T07:21:07.167Z,8.07
2022-10-08T07:23:56.392Z,6.10
2022-10-08T07:26:44.987Z,7.13
2022-10-08T07:29:34.332Z,9.95
2022-10-08T07:32:23.231Z,7.60
2022-10-08T07:35:13.724Z,8.07
2022-10-08T07:38:02.815Z,9.93
2022-10-08T07:40:55.650Z,6.95
2022-10-08T07:43:44.457Z,6.53
2022-10-08T07:46:35.142Z,4.93
2022-10-08T07:49:23.775Z,7.57
2022-10-08T07:52:14.253Z,7.97
2022-10-08T07:55:03.567Z,6.78
2022-10-08T07:57:52.744Z,9.82
2022-10-08T08:00:42.456Z,8.68
2022-10-08T08:03:32.023Z,6.95
2022-10-08T08:06:21.149Z,11.50
2022-10-08T08:09:12.123Z,15.30
2022-10-08T08:12:01.025Z,10.80
2022-10-08T08:14:50.119Z,11.93
2022-10-08T08:17:39.816Z,14.18
2022-10-08T08:20:28.339Z,15.18
2022-10-08T08:23:19.371Z,13.60
2022-10-08T08:26:11.883Z,13.60
2022-10-08T08:29:02.207Z,14.63
2022-10-08T08:31:51.922Z,21.98
2022-10-08T08:34:42.717Z,25.00
2022-10-08T08:37:31.471Z,23.85
2022-10-08T08:40:20.278Z,21.35
2022-10-08T08:43:10.168Z,24.58
2022-10-08T08:45:59.750Z,24.70
2022-10-08T08:48:48.699Z,24.42
2022-10-08T08:51:37.739Z,30.38
2022-10-08T08:54:27.720Z,26.15
2022-10-08T08:57:33.225Z,30.95
2022-10-08T09:00:25.639Z,33.40
2022-10-08T09:03:21.374Z,31.63
2022-10-08T09:06:14.523Z,27.75
2022-10-08T09:09:08.925Z,33.10
2022-10-08T09:11:58.529Z,38.53
2022-10-08T09:14:51.890Z,29.27
2022-10-08T09:17:43.535Z,31.65
2022-10-08T09:20:37.799Z,27.85
2022-10-08T09:23:29.279Z,36.15
2022-10-08T09:26:22.811Z,40.45
2022-10-08T09:29:33.305Z,38.92
2022-10-08T09:32:23.803Z,42.75
2022-10-08T09:35:17.427Z,33.95
2022-10-08T09:38:07.009Z,39.30
2022-10-08T09:41:02.320Z,34.92
2022-10-08T09:44:16.449Z,37.05
2022-10-08T09:47:07.208Z,37.47
2022-10-08T09:50:05.529Z,44.67
2022-10-08T09:52:57.352Z,39.03
2022-10-08T09:55:53.821Z,39.45
2022-10-08T09:58:52.579Z,35.03
2022-10-08T10:01:47.142Z,33.53
2022-10-08T10:04:38.693Z,38.70
2022-10-08T10:07:38.306Z,34.20
2022-10-08T10:10:33.153Z,36.90
2022-10-08T10:13:28.721Z,33.20
2022-10-08T10:16:21.465Z,31.48
2022-10-08T10:19:13.895Z,31.27
2022-10-08T10:22:04.710Z,30.55
2022-10-08T10:25:02.199Z,31.55
2022-10-08T10:27:56.140Z,34.22
2022-10-08T10:30:54.689Z,30.50
2022-10-08T10:33:52.363Z,33.22
2022-10-08T10:36:45.829Z,29.52
2022-10-08T10:39:41.017Z,38.65
2022-10-08T10:42:35.160Z,36.28
2022-10-08T10:45:28.504Z,32.05
2022-10-08T10:48:17.958Z,29.05
2022-10-08T10:51:21.755Z,25.23
2022-10-08T10:54:24.754Z,26.95
2022-10-08T10:57:19.279Z,21.65
2022-10-08T11:00:11.458Z,25.67
2022-10-08T11:03:09.662Z,20.02
2022-10-08T11:06:00.956Z,18.70
2022-10-08T11:09:01.258Z,18.10
2022-10-08T11:11:55.530Z,16.33
2022-10-08T11:14:50.920Z,25.33
2022-10-08T11:17:51.224Z,18.52
2022-10-08T11:21:02.333Z,17.73
2022-10-08T11:23:57.122Z,19.83
2022-10-08T11:26:48.089Z,28.00
2022-10-08T11:29:40.539Z,25.02
2022-10-08T11:32:30.868Z,24.38
2022-10-08T11:35:23.069Z,21.65
2022-10-08T11:38:18.446Z,22.17
2022-10-08T11:41:12.115Z,20.48
2022-10-08T11:44:02.920Z,13.85
2022-10-08T11:46:52.278Z,14.25
2022-10-08T11:49:54.550Z,20.00
2022-10-08T11:52:43.952Z,15.10
2022-10-08T11:55:34.805Z,15.38
2022-10-08T11:58:28.196Z,16.10
2022-10-08T12:01:17.401Z,12.93
2022-10-08T12:04:21.446Z,13.13
2022-10-08T12:07:24.797Z,14.52
2022-10-08T12:10:34.049Z,13.25
2022-10-08T12:13:29.399Z,15.60
2022-10-08T12:16:18.522Z,9.48
2022-10-08T12:19:30.889Z,11.35
2022-10-08T12:22:46.432Z,12.77
2022-10-08T12:25:44.339Z,14.15
2022-10-08T12:28:50.628Z,9.85
2022-10-08T12:31:44.214Z,11.43
2022-10-08T12:34:35.887Z,15.80
2022-10-08T12:37:51.003Z,11.30
2022-10-08T12:40:45.044Z,9.02
2022-10-08T12:43:43.922Z,10.95
2022-10-08T12:46:41.739Z,10.82
2022-10-08T12:49:37.854Z,10.00
2022-10-08T12:52:27.247Z,10.75
2022-10-08T12:55:19.340Z,10.50
2022-10-08T12:58:16.040Z,14.88
2022-10-08T13:01:07.221Z,8.88
2022-10-08T13:04:19.184Z,6.68
2022-10-08T13:07:25.285Z,9.50
2022-10-08T13:10:20.002Z,6.70
2022-10-08T13:13:43.471Z,6.05
2022-10-08T13:16:47.456Z,6.05
2022-10-08T13:19:38.145Z,6.25
2022-10-08T13:22:27.614Z,6.95
2022-10-08T13:25:36.392Z,5.05
2022-10-08T13:28:48.448Z,7.15
2022-10-08T13:31:37.478Z,14.25
2022-10-08T13:34:29.731Z,8.88
2022-10-08T13:37:28.286Z,12.13
2022-10-08T13:40:21.055Z,7.63
2022-10-08T13:43:10.505Z,9.77
2022-10-08T13:45:59.411Z,9.60
2022-10-08T13:48:49.839Z,10.80
2022-10-08T13:51:39.073Z,8.07
2022-10-08T13:54:30.385Z,12.18
2022-10-08T13:57:19.769Z,8.38
2022-10-08T14:00:13.804Z,12.52
2022-10-08T14:03:02.972Z,8.90
2022-10-08T14:05:53.548Z,11.20
2022-10-08T14:08:42.225Z,13.98
2022-10-08T14:11:32.517Z,8.38
2022-10-08T14:14:21.722Z,11.23
2022-10-08T14:17:15.744Z,12.85
2022-10-08T14:20:05.622Z,10.73
2022-10-08T14:22:56.400Z,10.27
2022-10-08T14:25:46.229Z,8.48
2022-10-08T14:28:35.300Z,9.18
2022-10-08T14:31:24.478Z,12.15
2022-10-08T14:34:13.596Z,7.97
2022-10-08T14:37:02.749Z,10.63
2022-10-08T14:39:54.409Z,10.23
2022-10-08T14:42:43.942Z,13.73
2022-10-08T14:45:32.408Z,8.02
2022-10-08T14:48:21.921Z,7.40
2022-10-08T14:51:12.540Z,9.13
2022-10-08T14:54:01.514Z,9.00
2022-10-08T14:56:54.622Z,8.38
2022-10-08T14:59:43.241Z,9.05
2022-10-08T15:02:34.319Z,8.50
2022-10-08T15:05:23.356Z,8.60
2022-10-08T15:08:12.040Z,9.35
2022-10-08T15:11:03.754Z,6.68
2022-10-08T15:13:55.489Z,7.55
2022-10-08T15:16:50.990Z,12.77
2022-10-08T15:19:40.590Z,8.05
2022-10-08T15:22:29.966Z,11.90
2022-10-08T15:25:19.302Z,8.25
2022-10-08T15:28:08.492Z,9.10
2022-10-08T15:31:06.869Z,9.55
2022-10-08T15:33:57.835Z,9.02
2022-10-08T15:36:52.616Z,10.40
2022-10-08T15:39:42.112Z,11.25
2022-10-08T15:42:31.091Z,9.52
2022-10-08T15:45:20.325Z,9.68
2022-10-08T15:48:13.118Z,10.15
2022-10-08T15:51:02.242Z,13.63
2022-10-08T15:53:51.849Z,7.97
2022-10-08T15:56:40.988Z,9.07
2022-10-08T15:59:29.959Z,13.50
2022-10-08T16:02:19.272Z,8.90
2022-10-08T16:05:10.902Z,8.02
2022-10-08T16:08:00.085Z,13.90
2022-10-08T16:10:49.385Z,12.23
2022-10-08T16:13:38.089Z,9.32
2022-10-08T16:16:27.824Z,13.88
2022-10-08T16:19:20.072Z,8.18
2022-10-08T16:22:11.253Z,12.52
2022-10-08T16:25:00.308Z,11.82
2022-10-08T16:27:50.155Z,10.45
2022-10-08T16:30:39.340Z,13.65
2022-10-08T16:33:28.514Z,9.23
2022-10-08T16:36:17.463Z,13.15
2022-10-08T16:39:09.050Z,7.93
2022-10-08T16:41:58.332Z,7.32
2022-10-08T16:44:47.424Z,7.65
2022-10-08T16:47:36.649Z,9.02
2022-10-08T16:50:25.757Z,10.70
2022-10-08T16:53:14.995Z,10.85
2022-10-08T16:56:06.947Z,10.38
2022-10-08T16:58:57.805Z,8.15
2022-10-08T17:01:48.021Z,8.55
2022-10-08T17:04:39.895Z,7.43
2022-10-08T17:07:28.705Z,9.57
2022-10-08T17:10:18.446Z,10.95
2022-10-08T17:13:08.784Z,9.50
2022-10-08T17:16:01.600Z,12.20
2022-10-08T17:18:53.026Z,9.80
2022-10-08T17:21:42.590Z,10.40
2022-10-08T17:24:32.218Z,10.40
2022-10-08T17:27:22.187Z,7.60
2022-10-08T17:30:14.629Z,9.93
2022-10-08T17:33:03.607Z,10.20
2022-10-08T17:36:01.781Z,10.45
2022-10-08T17:38:53.018Z,7.82
2022-10-08T17:41:43.589Z,9.23
2022-10-08T17:44:32.764Z,9.00
2022-10-08T17:47:27.057Z,14.15
2022-10-08T17:50:18.534Z,13.40
2022-10-08T17:53:07.580Z,9.15
2022-10-08T17:56:00.576Z,8.95
2022-10-08T17:58:50.035Z,8.95
2022-10-08T18:01:44.085Z,9.13
2022-10-08T18:04:35.776Z,14.15
2022-10-08T18:07:24.985Z,10.45
2022-10-08T18:10:14.827Z,8.52
2022-10-08T18:13:04.128Z,12.00
2022-10-08T18:15:53.041Z,13.68
2022-10-08T18:18:42.869Z,14.13
2022-10-08T18:21:33.094Z,11.55
2022-10-08T18:24:21.966Z,12.40
2022-10-08T18:27:11.547Z,13.38
2022-10-08T18:30:00.668Z,12.95
2022-10-08T18:32:50.529Z,11.30
2022-10-08T18:35:39.929Z,11.45
2022-10-08T18:38:30.506Z,13.02
2022-10-08T18:41:21.428Z,13.05
2022-10-08T18:44:13.296Z,10.35
2022-10-08T18:47:05.370Z,10.75
2022-10-08T18:49:55.110Z,12.48
2022-10-08T18:52:44.888Z,10.80
2022-10-08T18:55:35.882Z,15.90
2022-10-08T18:58:24.955Z,18.23
2022-10-08T19:01:20.532Z,24.60
2022-10-08T19:04:10.984Z,24.15
2022-10-08T19:07:00.611Z,23.63
2022-10-08T19:09:50.059Z,22.73
2022-10-08T19:12:40.719Z,19.95
2022-10-08T19:15:30.067Z,22.42
2022-10-08T19:18:19.212Z,22.02
2022-10-08T19:21:09.488Z,23.58
2022-10-08T19:24:00.024Z,24.15
2022-10-08T19:26:50.144Z,18.80
2022-10-08T19:29:41.118Z,19.88
2022-10-08T19:32:29.948Z,18.23
2022-10-08T19:35:19.396Z,23.67
2022-10-08T19:38:08.956Z,23.25
2022-10-08T19:40:57.909Z,19.67
2022-10-08T19:43:47.267Z,22.23
2022-10-08T19:46:37.731Z,18.17
2022-10-08T19:49:26.929Z,19.80
2022-10-08T19:52:16.120Z,24.63
2022-10-08T19:55:05.314Z,20.67
2022-10-08T19:57:54.305Z,18.80
2022-10-08T20:00:43.851Z,20.63
2022-10-08T20:03:34.566Z,21.45
2022-10-08T20:06:24.950Z,22.42
2022-10-08T20:09:15.185Z,29.10
2022-10-08T20:12:04.763Z,27.08
2022-10-08T20:14:54.267Z,21.63
2022-10-08T20:17:44.272Z,22.35
2022-10-08T20:20:34.923Z,20.25
2022-10-08T20:23:24.113Z,23.30
2022-10-08T20:26:16.514Z,26.65
2022-10-08T20:29:07.683Z,22.33
2022-10-08T20:31:57.808Z,24.52
2022-10-08T20:34:46.837Z,28.92
2022-10-08T20:37:38.092Z,23.33
2022-10-08T20:40:27.099Z,26.45
2022-10-08T20:43:16.383Z,26.13
2022-10-08T20:46:06.139Z,27.73
2022-10-08T20:48:54.984Z,23.70
2022-10-08T20:51:45.153Z,24.80
2022-10-08T20:54:36.052Z,22.73
2022-10-08T20:57:25.169Z,26.58
2022-10-08T21:00:15.295Z,21.15
2022-10-08T21:03:04.281Z,22.73
2022-10-08T21:05:53.390Z,25.17
2022-10-08T21:08:45.929Z,22.88
2022-10-08T21:11:37.545Z,27.33
2022-10-08T21:14:27.235Z,23.10
2022-10-08T21:17:16.190Z,22.35
2022-10-08T21:20:05.661Z,19.20
2022-10-08T21:22:55.024Z,23.80
2022-10-08T21:25:44.360Z,23.40
2022-10-08T21:28:34.913Z,31.77
2022-10-08T21:31:23.983Z,23.52
2022-10-08T21:34:14.103Z,21.17
2022-10-08T21:37:03.563Z,17.83
2022-10-08T21:39:52.928Z,21.00
2022-10-08T21:42:42.122Z,19.67
2022-10-08T21:45:32.561Z,21.73
2022-10-08T21:48:21.880Z,20.60
2022-10-08T21:51:12.899Z,18.92
2022-10-08T21:54:03.595Z,17.75
2022-10-08T21:56:53.368Z,20.58
2022-10-08T21:59:42.833Z,22.10
2022-10-08T22:02:33.024Z,19.00
2022-10-08T22:05:26.529Z,19.90
2022-10-08T22:08:18.503Z,22.60
2022-10-08T22:11:08.320Z,21.55
2022-10-08T22:13:57.445Z,22.75
2022-10-08T22:16:47.566Z,27.35
2022-10-08T22:19:38.707Z,27.48
2022-10-08T22:22:27.720Z,24.05
2022-10-08T22:25:17.480Z,23.02
2022-10-08T22:28:06.578Z,25.00
2022-10-08T22:30:56.517Z,26.98
2022-10-08T22:33:45.776Z,27.08
2022-10-08T22:36:40.020Z,25.42
2022-10-08T22:39:29.614Z,21.90
2022-10-08T22:42:19.146Z,22.15
2022-10-08T22:45:09.603Z,24.08
2022-10-08T22:47:58.858Z,24.95
2022-10-08T22:50:47.954Z,26.27
2022-10-08T22:53:38.752Z,18.75
2022-10-08T22:56:31.613Z,20.38
2022-10-08T22:59:20.991Z,19.65
2022-10-08T23:02:10.880Z,20.65
2022-10-08T23:05:00.027Z,21.20
2022-10-08T23:07:49.097Z,20.38
2022-10-08T23:10:40.860Z,20.60
2022-10-08T23:13:31.111Z,17.35
2022-10-08T23:16:20.699Z,24.20
2022-10-08T23:19:10.514Z,19.02
2022-10-08T23:22:00.090Z,19.42
2022-10-08T23:24:49.156Z,19.27
2022-10-08T23:27:39.681Z,25.20
2022-10-08T23:30:42.721Z,21.88
2022-10-08T23:33:32.927Z,20.67
2022-10-08T23:36:24.788Z,19.70
2022-10-08T23:39:15.950Z,24.30
2022-10-08T23:42:05.217Z,20.20
2022-10-08T23:44:56.388Z,19.52
2022-10-08T23:47:45.504Z,20.38
2022-10-08T23:50:37.994Z,18.45
2022-10-08T23:53:27.122Z,21.73
2022-10-08T23:56:15.931Z,18.77
2022-10-08T23:59:05.298Z,23.00
